Time;durP1;ratioP1;P1;durP2;ratioP2;P2;SDS_P1;SDS_P2;PMS_P1;PMS_P2;Temp;Humidity;BMP_temperature;BMP_pressure;BME280_temperature;BME280_humidity;BME280_pressure;Samples;Min_cycle;Max_cycle;Signal;HPM_P1;HPM_P2
2023/01/25 00:01:34;;;;;;;41.22;29.92;;;;;;;0.58;81.21;103664.13;4879716;29;20050;-74
2023/01/25 00:04:01;;;;;;;45.08;29.05;;;;;;;0.52;80.92;103666.38;4887283;29;20550;-74
2023/01/25 00:06:28;;;;;;;43.72;30.15;;;;;;;0.45;81.16;103667.75;4889035;29;20155;-74
2023/01/25 00:08:55;;;;;;;42.80;30.63;;;;;;;0.43;81.13;103667.66;4890009;29;20056;-74
2023/01/25 00:11:22;;;;;;;45.30;29.63;;;;;;;0.39;81.04;103667.38;4886303;29;20037;-75
2023/01/25 00:13:52;;;;;;;46.25;30.80;;;;;;;0.36;81.07;103656.81;4890061;29;20044;-74
2023/01/25 00:16:20;;;;;;;44.28;30.33;;;;;;;0.32;81.17;103660.94;4880263;29;20073;-74
2023/01/25 00:18:49;;;;;;;45.83;31.42;;;;;;;0.28;81.48;103661.59;4879922;29;20188;-75
2023/01/25 00:21:21;;;;;;;45.10;30.13;;;;;;;0.29;81.79;103658.19;4883660;29;20155;-73
2023/01/25 00:23:49;;;;;;;47.15;31.42;;;;;;;0.30;82.04;103658.25;4877099;29;20064;-73
2023/01/25 00:26:17;;;;;;;42.85;29.98;;;;;;;0.34;82.14;103658.44;4883632;29;20503;-73
2023/01/25 00:28:53;;;;;;;46.75;31.05;;;;;;;0.39;82.22;103649.22;4873365;29;20525;-76
2023/01/25 00:31:32;;;;;;;44.38;30.25;;;;;;;0.41;82.27;103640.69;4889109;29;20538;-76
2023/01/25 00:34:22;;;;;;;45.10;30.90;;;;;;;0.44;82.23;103643.47;4860135;29;20056;-76
2023/01/25 00:37:18;;;;;;;48.70;31.63;;;;;;;0.44;82.40;103640.88;4869002;29;20057;-76
2023/01/25 00:39:45;;;;;;;46.63;31.02;;;;;;;0.45;82.19;103637.47;4862873;29;20568;-74
2023/01/25 00:42:15;;;;;;;49.95;32.95;;;;;;;0.48;82.27;103643.66;4885333;29;20526;-74
2023/01/25 00:44:44;;;;;;;53.88;33.40;;;;;;;0.49;82.21;103642.84;4878927;29;20176;-74
2023/01/25 00:47:12;;;;;;;51.45;33.60;;;;;;;0.47;82.38;103640.16;4888320;29;20502;-75
2023/01/25 00:49:41;;;;;;;49.90;32.40;;;;;;;0.46;82.24;103623.69;4878495;29;20041;-74
2023/01/25 00:52:09;;;;;;;52.55;33.20;;;;;;;0.48;82.22;103635.88;4864593;29;20405;-74
2023/01/25 00:54:37;;;;;;;50.40;33.00;;;;;;;0.47;81.71;103632.38;4880493;29;20056;-74
2023/01/25 00:57:05;;;;;;;49.85;32.70;;;;;;;0.42;81.60;103631.22;4872076;29;20036;-74
2023/01/25 00:59:33;;;;;;;51.55;33.05;;;;;;;0.41;81.73;103632.03;4887633;29;20053;-74
2023/01/25 01:02:01;;;;;;;52.42;33.83;;;;;;;0.38;81.90;103634.44;4872334;29;20059;-74
2023/01/25 01:04:29;;;;;;;47.97;32.90;;;;;;;0.37;81.97;103627.47;4888962;29;20080;-73
2023/01/25 01:06:56;;;;;;;59.20;35.83;;;;;;;0.34;81.98;103629.91;4877653;29;20550;-72
2023/01/25 01:09:24;;;;;;;51.13;33.33;;;;;;;0.33;81.92;103621.22;4880497;29;20041;-72
2023/01/25 01:11:52;;;;;;;54.28;34.47;;;;;;;0.28;81.94;103623.53;4884694;29;20129;-72
2023/01/25 01:14:21;;;;;;;53.33;33.53;;;;;;;0.29;82.15;103621.84;4855065;29;20045;-72
2023/01/25 01:16:49;;;;;;;53.38;34.10;;;;;;;0.30;82.08;103621.94;4870426;29;20049;-71
2023/01/25 01:19:18;;;;;;;50.67;33.22;;;;;;;0.28;82.10;103635.63;4888037;29;20052;-72
2023/01/25 01:21:45;;;;;;;53.72;34.20;;;;;;;0.28;82.27;103625.25;4888919;29;20045;-72
2023/01/25 01:24:12;;;;;;;52.53;34.70;;;;;;;0.28;82.22;103625.25;4883400;29;20069;-72
2023/01/25 01:26:39;;;;;;;52.17;33.72;;;;;;;0.28;82.13;103622.66;4868823;29;20102;-72
2023/01/25 01:29:06;;;;;;;53.50;34.67;;;;;;;0.27;82.01;103626.06;4873516;29;20253;-72
2023/01/25 01:31:34;;;;;;;50.97;34.72;;;;;;;0.27;81.73;103631.25;4870265;29;20057;-72
2023/01/25 01:34:17;;;;;;;51.45;34.38;;;;;;;0.22;81.51;103622.28;4884516;29;20041;-75
2023/01/25 01:36:44;;;;;;;52.65;34.72;;;;;;;0.14;81.52;103627.06;4888711;29;20052;-75
2023/01/25 01:39:11;;;;;;;55.08;34.97;;;;;;;0.10;81.90;103625.09;4888290;29;20526;-76
2023/01/25 01:41:38;;;;;;;55.20;34.70;;;;;;;0.09;82.43;103624.22;4889444;29;20069;-75
2023/01/25 01:44:19;;;;;;;53.50;34.28;;;;;;;0.13;82.52;103625.28;4880156;29;20045;-76
2023/01/25 01:46:58;;;;;;;57.20;35.72;;;;;;;0.16;82.80;103617.63;4887548;29;20048;-77
2023/01/25 01:49:32;;;;;;;58.30;36.58;;;;;;;0.23;82.91;103630.19;4864600;29;20045;-76
2023/01/25 01:52:15;;;;;;;57.65;36.50;;;;;;;0.29;82.82;103627.94;4871090;29;20050;-76
2023/01/25 01:54:55;;;;;;;58.35;36.63;;;;;;;0.32;82.72;103619.41;4876369;29;20053;-75
2023/01/25 01:57:36;;;;;;;57.45;36.60;;;;;;;0.35;82.60;103627.38;4886124;29;20049;-76
2023/01/25 02:00:13;;;;;;;56.85;35.50;;;;;;;0.36;82.73;103625.66;4887584;29;20069;-76
2023/01/25 02:02:41;;;;;;;55.95;35.47;;;;;;;0.35;82.88;103626.50;4866015;29;20110;-76
2023/01/25 02:05:47;;;;;;;57.53;34.90;;;;;;;0.39;82.28;103626.75;4879179;29;20466;-76
2023/01/25 02:08:14;;;;;;;57.22;35.45;;;;;;;0.28;82.50;103620.06;4874832;29;20045;-74
2023/01/25 02:10:43;;;;;;;54.92;35.15;;;;;;;0.28;82.20;103617.47;4865663;29;20045;-75
2023/01/25 02:13:10;;;;;;;58.40;35.45;;;;;;;0.22;82.29;103618.00;4887849;29;20056;-75
2023/01/25 02:15:44;;;;;;;50.97;33.35;;;;;;;0.23;82.27;103613.69;4873021;29;20045;-76
2023/01/25 02:18:13;;;;;;;54.22;35.13;;;;;;;0.17;82.53;103619.44;4887439;29;20049;-76
2023/01/25 02:20:47;;;;;;;53.53;36.10;;;;;;;0.18;82.58;103613.44;4881038;29;20049;-76
2023/01/25 02:23:46;;;;;;;57.72;36.08;;;;;;;0.18;82.41;103613.44;4880043;29;20062;-76
2023/01/25 02:26:17;;;;;;;58.00;37.40;;;;;;;0.12;82.11;103606.19;4877635;29;20084;-75
2023/01/25 02:28:58;;;;;;;60.33;36.15;;;;;;;0.07;82.51;103598.97;4888235;29;20053;-76
2023/01/25 02:31:25;;;;;;;57.67;35.55;;;;;;;0.10;82.90;103601.75;4887509;29;20063;-75
2023/01/25 02:33:53;;;;;;;57.38;35.03;;;;;;;0.14;83.04;103602.00;4874734;29;20140;-74
2023/01/25 02:36:28;;;;;;;56.40;35.65;;;;;;;0.18;83.09;103595.28;4874476;29;20045;-73
2023/01/25 02:39:01;;;;;;;53.67;34.30;;;;;;;0.21;82.96;103595.47;4867689;29;20053;-76
2023/01/25 02:41:43;;;;;;;57.20;34.95;;;;;;;0.21;83.02;103592.88;4874238;29;20114;-76
2023/01/25 02:44:16;;;;;;;54.70;35.22;;;;;;;0.22;82.99;103594.66;4884388;29;20053;-75
2023/01/25 02:46:44;;;;;;;58.05;36.13;;;;;;;0.24;83.01;103592.13;4883131;29;20041;-74
2023/01/25 02:49:11;;;;;;;58.03;35.85;;;;;;;0.27;83.15;103595.81;4867836;29;20516;-74
2023/01/25 02:51:56;;;;;;;59.78;37.10;;;;;;;0.29;83.09;103595.91;4882957;29;20098;-74
2023/01/25 02:54:27;;;;;;;59.17;37.03;;;;;;;0.28;83.04;103591.53;4868217;29;20045;-73
2023/01/25 02:56:56;;;;;;;57.40;35.60;;;;;;;0.30;83.10;103589.91;4866353;29;20118;-71
2023/01/25 02:59:25;;;;;;;57.38;36.22;;;;;;;0.29;82.83;103583.81;4862694;29;20102;-71
2023/01/25 03:01:57;;;;;;;59.72;36.50;;;;;;;0.28;82.95;103584.63;4868332;29;20050;-71
2023/01/25 03:04:24;;;;;;;59.00;36.78;;;;;;;0.27;82.92;103579.34;4869510;29;20418;-72
2023/01/25 03:06:51;;;;;;;59.47;37.40;;;;;;;0.27;82.90;103581.94;4867917;29;20045;-71
2023/01/25 03:09:19;;;;;;;60.58;38.05;;;;;;;0.26;82.42;103574.97;4871712;29;20499;-71
2023/01/25 03:11:48;;;;;;;63.20;38.65;;;;;;;0.18;82.71;103576.25;4868012;29;20054;-71
2023/01/25 03:14:17;;;;;;;64.70;39.38;;;;;;;0.16;82.88;103578.72;4868622;29;20472;-70
2023/01/25 03:16:44;;;;;;;61.33;37.13;;;;;;;0.17;83.00;103577.91;4871338;29;20053;-70
2023/01/25 03:19:12;;;;;;;62.58;36.33;;;;;;;0.18;82.87;103573.66;4869996;29;20053;-70
2023/01/25 03:21:40;;;;;;;60.33;37.60;;;;;;;0.19;82.78;103571.13;4882252;29;20418;-70
2023/01/25 03:24:09;;;;;;;59.58;37.25;;;;;;;0.19;82.62;103571.13;4877697;29;20061;-70
2023/01/25 03:29:37;;;;;;;62.65;38.90;;;;;;;0.19;82.82;103559.88;4868787;29;20542;-70
2023/01/25 03:32:10;;;;;;;59.40;36.67;;;;;;;0.18;82.93;103558.94;4879308;29;20048;-70
2023/01/25 03:34:37;;;;;;;60.60;38.13;;;;;;;0.18;82.79;103558.06;4873870;29;20060;-70
2023/01/25 03:37:04;;;;;;;66.43;40.05;;;;;;;0.15;82.33;103557.09;4874605;29;20151;-70
2023/01/25 03:39:33;;;;;;;67.00;39.85;;;;;;;0.07;82.73;103547.06;4878388;29;20452;-70
2023/01/25 03:42:00;;;;;;;69.20;40.92;;;;;;;0.04;83.04;103553.00;4874618;29;20055;-70
2023/01/25 03:44:27;;;;;;;63.40;39.10;;;;;;;0.04;83.23;103547.81;4886720;29;20417;-70
2023/01/25 03:46:55;;;;;;;64.22;39.47;;;;;;;0.06;83.36;103553.97;4892509;29;20057;-70
2023/01/25 03:49:22;;;;;;;63.10;39.53;;;;;;;0.07;83.47;103544.47;4874501;29;20517;-71
2023/01/25 03:51:51;;;;;;;64.95;40.70;;;;;;;0.07;83.45;103545.38;4874281;29;20045;-71
2023/01/25 03:54:24;;;;;;;66.03;38.38;;;;;;;0.10;83.57;103549.84;4881409;29;20311;-71
2023/01/25 03:56:51;;;;;;;64.85;40.08;;;;;;;0.14;83.71;103557.88;4887089;29;20563;-71
2023/01/25 03:59:24;;;;;;;65.85;39.22;;;;;;;0.16;83.64;103552.78;4889009;29;20048;-71
2023/01/25 04:01:51;;;;;;;67.00;39.20;;;;;;;0.18;83.58;103543.38;4872047;29;20477;-71
2023/01/25 04:04:18;;;;;;;64.90;39.42;;;;;;;0.20;83.63;103541.78;4882610;29;20535;-77
2023/01/25 04:06:47;;;;;;;67.00;40.00;;;;;;;0.19;83.43;103537.38;4872067;29;20474;-76
2023/01/25 04:09:15;;;;;;;74.20;44.40;;;;;;;0.17;83.43;103536.41;4885762;29;20054;-76
2023/01/25 04:11:49;;;;;;;70.18;42.03;;;;;;;0.14;83.27;103533.66;4869564;29;20045;-75
2023/01/25 04:14:18;;;;;;;69.75;42.53;;;;;;;0.13;82.92;103532.75;4855576;29;20148;-75
2023/01/25 04:17:04;;;;;;;74.03;43.65;;;;;;;0.07;82.87;103515.94;4873385;29;20045;-75
2023/01/25 04:19:36;;;;;;;72.85;42.15;;;;;;;0.03;83.01;103527.84;4870330;29;20048;-75
2023/01/25 04:22:05;;;;;;;69.30;41.22;;;;;;;0.00;83.10;103525.09;4882669;29;20049;-75
2023/01/25 04:24:36;;;;;;;70.97;41.67;;;;;;;-0.01;83.32;103533.69;4867744;29;20137;-75
2023/01/25 04:27:05;;;;;;;70.57;42.83;;;;;;;-0.03;83.17;103531.00;4873019;29;20053;-75
2023/01/25 04:29:38;;;;;;;66.50;39.15;;;;;;;0.01;83.54;103529.47;4872041;29;20055;-74
2023/01/25 04:32:11;;;;;;;63.58;39.72;;;;;;;0.05;83.15;103525.38;4865591;29;20061;-75
2023/01/25 04:34:38;;;;;;;65.88;40.65;;;;;;;0.05;83.32;103523.66;4869991;29;20048;-75
2023/01/25 04:37:11;;;;;;;65.63;40.38;;;;;;;0.05;83.10;103515.00;4874296;29;20052;-75
2023/01/25 04:39:48;;;;;;;65.93;40.50;;;;;;;0.03;82.97;103514.00;4869542;29;20103;-74
2023/01/25 04:42:16;;;;;;;64.80;39.25;;;;;;;0.01;83.07;103516.50;4873608;29;20113;-74
2023/01/25 04:44:46;;;;;;;67.95;40.97;;;;;;;0.01;83.09;103511.31;4888130;29;21988;-74
2023/01/25 04:47:14;;;;;;;67.78;40.05;;;;;;;0.02;83.33;103509.63;4874263;29;20045;-75
2023/01/25 04:49:41;;;;;;;68.05;40.75;;;;;;;0.03;83.23;103511.41;4884516;29;20699;-76
2023/01/25 04:52:09;;;;;;;60.05;38.55;;;;;;;0.03;82.98;103509.69;4870560;29;20143;-76
2023/01/25 04:54:37;;;;;;;62.10;38.13;;;;;;;-0.01;82.92;103506.03;4877554;29;20530;-76
2023/01/25 04:57:04;;;;;;;58.63;38.15;;;;;;;-0.06;82.88;103498.81;4872727;29;20049;-76
2023/01/25 04:59:31;;;;;;;56.58;36.22;;;;;;;-0.09;82.88;103502.13;4872836;29;20574;-76
2023/01/25 05:01:58;;;;;;;57.60;37.28;;;;;;;-0.11;82.51;103495.94;4880152;29;20049;-77
2023/01/25 05:04:26;;;;;;;61.53;38.10;;;;;;;-0.13;82.41;103496.69;4878365;29;20057;-77
2023/01/25 05:06:53;;;;;;;61.83;38.72;;;;;;;-0.17;82.38;103495.63;4883659;29;20045;-77
2023/01/25 05:09:20;;;;;;;62.90;40.17;;;;;;;-0.21;82.49;103493.66;4888237;29;20533;-76
2023/01/25 05:11:48;;;;;;;63.35;40.05;;;;;;;-0.21;82.41;103491.06;4881920;29;20044;-75
2023/01/25 05:14:26;;;;;;;64.68;41.60;;;;;;;-0.21;82.70;103488.47;4872405;29;20276;-76
2023/01/25 05:16:53;;;;;;;65.88;42.03;;;;;;;-0.22;82.76;103492.75;4882932;29;21177;-77
2023/01/25 05:19:21;;;;;;;65.10;41.03;;;;;;;-0.22;82.97;103487.56;4872212;29;20512;-75
2023/01/25 05:22:02;;;;;;;64.43;37.63;;;;;;;-0.22;83.26;103499.63;4873063;29;20590;-75
2023/01/25 05:24:40;;;;;;;63.08;39.60;;;;;;;-0.24;83.23;103496.97;4876291;29;20041;-77
2023/01/25 05:27:12;;;;;;;64.13;40.30;;;;;;;-0.26;83.53;103493.38;4872274;29;20052;-77
2023/01/25 05:30:07;;;;;;;61.45;38.38;;;;;;;-0.25;83.43;103495.19;4886656;29;20572;-78
2023/01/25 05:32:53;;;;;;;58.88;37.15;;;;;;;-0.22;83.60;103503.13;4871936;29;20045;-76
2023/01/25 05:35:22;;;;;;;60.67;39.38;;;;;;;-0.21;83.63;103493.66;4886973;29;20208;-76
2023/01/25 05:37:58;;;;;;;60.08;37.38;;;;;;;-0.23;83.81;103490.97;4887207;29;20049;-77
2023/01/25 05:40:26;;;;;;;56.90;36.97;;;;;;;-0.22;83.26;103499.63;4869373;29;20089;-75
2023/01/25 05:42:58;;;;;;;63.63;37.85;;;;;;;-0.23;83.12;103497.84;4870495;29;20620;-75
2023/01/25 05:45:29;;;;;;;55.08;34.65;;;;;;;-0.26;82.98;103497.69;4887048;29;20073;-71
2023/01/25 05:47:58;;;;;;;51.65;35.05;;;;;;;-0.25;83.14;103489.06;4860201;29;20530;-71
2023/01/25 05:50:26;;;;;;;62.67;40.75;;;;;;;-0.23;83.26;103479.69;4870596;29;20518;-72
2023/01/25 05:53:16;;;;;;;60.47;38.90;;;;;;;-0.18;83.49;103478.28;4882309;29;20138;-71
2023/01/25 05:55:44;;;;;;;61.33;39.13;;;;;;;-0.11;83.56;103482.09;4867553;29;20053;-71
2023/01/25 05:58:15;;;;;;;68.70;40.15;;;;;;;-0.10;82.62;103487.38;4855367;29;20098;-71
2023/01/25 06:00:42;;;;;;;62.00;40.10;;;;;;;-0.12;82.40;103485.50;4855381;29;20053;-71
2023/01/25 06:03:15;;;;;;;64.80;40.47;;;;;;;-0.15;82.09;103483.59;4869711;29;20053;-72
2023/01/25 06:05:43;;;;;;;67.47;41.05;;;;;;;-0.18;82.50;103484.34;4872555;29;20049;-72
2023/01/25 06:08:10;;;;;;;64.47;39.97;;;;;;;-0.14;82.68;103484.50;4871046;29;20467;-73
2023/01/25 06:10:47;;;;;;;64.97;41.63;;;;;;;-0.11;82.80;103485.56;4869261;29;20570;-73
2023/01/25 06:13:14;;;;;;;66.07;40.65;;;;;;;-0.10;82.57;103481.31;4869785;29;20047;-73
2023/01/25 06:15:42;;;;;;;64.78;39.17;;;;;;;-0.07;82.76;103484.03;4869864;29;20425;-73
2023/01/25 06:18:30;;;;;;;65.78;38.50;;;;;;;-0.03;82.84;103476.53;4884418;29;21996;-74
2023/01/25 06:21:16;;;;;;;68.88;40.50;;;;;;;-0.02;82.80;103488.69;4887160;29;20083;-74
2023/01/25 06:23:43;;;;;;;68.22;41.83;;;;;;;-0.02;82.76;103480.03;4874043;29;20145;-74
2023/01/25 06:26:14;;;;;;;69.60;42.72;;;;;;;-0.04;82.83;103473.84;4871258;29;20057;-74
2023/01/25 06:28:42;;;;;;;69.45;41.80;;;;;;;-0.05;82.80;103483.31;4869636;29;20542;-76
2023/01/25 06:31:15;;;;;;;66.75;41.17;;;;;;;-0.05;82.76;103479.84;4865931;29;20111;-75
2023/01/25 06:33:47;;;;;;;62.08;39.47;;;;;;;-0.09;82.66;103475.28;4877179;29;20060;-75
2023/01/25 06:36:19;;;;;;;69.50;41.30;;;;;;;-0.16;82.52;103471.47;4851443;29;20507;-74
2023/01/25 06:38:51;;;;;;;78.75;45.42;;;;;;;-0.23;82.76;103464.13;4882259;29;20090;-74
2023/01/25 06:41:19;;;;;;;78.20;45.20;;;;;;;-0.26;82.79;103469.16;4876597;29;20068;-74
2023/01/25 06:43:50;;;;;;;78.45;45.08;;;;;;;-0.26;83.09;103467.44;4869182;29;20053;-74
2023/01/25 06:46:18;;;;;;;79.32;45.25;;;;;;;-0.28;83.27;103475.97;4865580;29;20078;-74
2023/01/25 06:48:45;;;;;;;78.00;44.92;;;;;;;-0.27;83.35;103476.03;4869868;29;20076;-74
2023/01/25 06:51:15;;;;;;;79.00;47.28;;;;;;;-0.28;83.42;103475.97;4867074;29;20569;-74
2023/01/25 06:53:44;;;;;;;80.13;46.60;;;;;;;-0.20;83.64;103474.69;4870172;29;20053;-74
2023/01/25 06:56:20;;;;;;;80.40;44.33;;;;;;;-0.14;83.32;103481.91;4872464;29;20638;-74
2023/01/25 06:58:49;;;;;;;80.55;45.88;;;;;;;-0.19;82.92;103485.13;4870114;29;20053;-75
2023/01/25 07:01:26;;;;;;;84.47;47.13;;;;;;;-0.20;82.96;103474.69;4874993;29;20483;-75
2023/01/25 07:03:56;;;;;;;90.55;48.67;;;;;;;-0.20;83.16;103482.47;4869493;29;20512;-74
2023/01/25 07:06:30;;;;;;;94.03;50.83;;;;;;;-0.20;83.26;103485.06;4871538;29;20133;-74
2023/01/25 07:09:05;;;;;;;99.78;53.17;;;;;;;-0.18;83.13;103481.75;4855833;29;20114;-74
2023/01/25 07:11:33;;;;;;;101.78;54.38;;;;;;;-0.22;82.89;103485.00;4868768;29;20050;-74
2023/01/25 07:14:01;;;;;;;100.95;52.58;;;;;;;-0.23;83.03;103471.91;4855672;29;20087;-74
2023/01/25 07:16:28;;;;;;;100.88;52.53;;;;;;;-0.23;83.25;103467.63;4857633;29;20468;-75
2023/01/25 07:18:55;;;;;;;100.05;52.85;;;;;;;-0.19;83.19;103474.75;4861028;29;20049;-74
2023/01/25 07:21:23;;;;;;;99.13;52.38;;;;;;;-0.19;83.28;103472.16;4857235;29;20626;-75
2023/01/25 07:23:51;;;;;;;102.15;53.50;;;;;;;-0.19;83.34;103464.38;4882202;29;20152;-75
2023/01/25 07:26:24;;;;;;;106.55;53.42;;;;;;;-0.20;83.21;103456.53;4884665;29;20041;-75
2023/01/25 07:28:53;;;;;;;103.60;52.35;;;;;;;-0.20;83.09;103465.19;4892977;29;20117;-75
2023/01/25 07:31:21;;;;;;;105.10;52.67;;;;;;;-0.25;82.97;103457.97;4889400;29;20108;-75
2023/01/25 07:33:52;;;;;;;102.25;51.25;;;;;;;-0.28;82.79;103461.28;4882076;29;20053;-74
2023/01/25 07:36:20;;;;;;;98.47;49.40;;;;;;;-0.35;82.89;103460.03;4882581;29;20517;-74
2023/01/25 07:38:48;;;;;;;104.50;53.00;;;;;;;-0.39;82.90;103452.00;4890031;29;20134;-74
2023/01/25 07:41:15;;;;;;;106.90;53.50;;;;;;;-0.44;82.76;103454.31;4887116;29;20041;-73
2023/01/25 07:43:42;;;;;;;104.53;53.70;;;;;;;-0.47;83.17;103455.06;4892124;29;20056;-73
2023/01/25 07:46:12;;;;;;;104.15;52.10;;;;;;;-0.47;83.36;103459.38;4889815;29;20060;-73
2023/01/25 07:48:46;;;;;;;102.20;52.03;;;;;;;-0.44;83.46;103453.44;4878956;29;20070;-73
2023/01/25 07:51:22;;;;;;;106.87;52.17;;;;;;;-0.42;83.21;103459.63;4873359;29;20074;-73
2023/01/25 07:53:58;;;;;;;102.03;51.03;;;;;;;-0.38;83.24;103458.97;4888509;29;20775;-73
2023/01/25 07:56:29;;;;;;;101.95;50.75;;;;;;;-0.40;83.48;103457.97;4891736;29;20075;-72
2023/01/25 07:58:59;;;;;;;102.03;51.55;;;;;;;-0.39;83.23;103465.88;4891607;29;20586;-73
2023/01/25 08:01:28;;;;;;;105.18;53.20;;;;;;;-0.41;83.27;103453.63;4890986;29;20078;-73
2023/01/25 08:03:56;;;;;;;107.85;54.47;;;;;;;-0.42;83.18;103457.03;4887111;29;20292;-73
2023/01/25 08:06:30;;;;;;;106.57;55.00;;;;;;;-0.46;83.05;103458.56;4891873;29;20072;-73
2023/01/25 08:08:58;;;;;;;110.63;54.03;;;;;;;-0.51;83.45;103457.38;4888010;29;20153;-72
2023/01/25 08:11:29;;;;;;;115.13;57.30;;;;;;;-0.52;83.44;103458.19;4891499;29;20056;-72
2023/01/25 08:13:57;;;;;;;112.60;55.28;;;;;;;-0.51;83.32;103453.06;4891045;29;20050;-72
2023/01/25 08:16:26;;;;;;;114.70;56.28;;;;;;;-0.53;83.62;103453.81;4890518;29;20052;-72
2023/01/25 08:18:58;;;;;;;112.40;55.28;;;;;;;-0.53;83.23;103448.63;4890004;29;20084;-72
2023/01/25 08:21:30;;;;;;;118.70;55.63;;;;;;;-0.56;83.24;103441.56;4873603;29;20077;-71
2023/01/25 08:24:00;;;;;;;117.60;55.50;;;;;;;-0.54;83.15;103449.41;4872100;29;20065;-72
2023/01/25 08:26:28;;;;;;;117.38;60.80;;;;;;;-0.55;83.30;103445.94;4873435;29;20110;-71
2023/01/25 08:28:57;;;;;;;112.07;53.72;;;;;;;-0.55;83.26;103445.03;4867553;29;20042;-72
2023/01/25 08:31:29;;;;;;;114.05;53.83;;;;;;;-0.55;83.26;103447.63;4854077;29;20106;-71
2023/01/25 08:33:58;;;;;;;119.60;55.97;;;;;;;-0.54;83.45;103444.25;4856179;29;20555;-72
2023/01/25 08:36:29;;;;;;;112.88;55.05;;;;;;;-0.53;83.31;103443.44;4854386;29;20435;-72
2023/01/25 08:39:00;;;;;;;115.57;58.10;;;;;;;-0.52;83.40;103438.38;4854325;29;20121;-72
2023/01/25 08:41:29;;;;;;;118.82;57.03;;;;;;;-0.51;83.08;103439.25;4853711;29;20121;-72
2023/01/25 08:43:57;;;;;;;119.15;57.08;;;;;;;-0.54;82.84;103437.38;4853964;29;20052;-72
2023/01/25 08:46:27;;;;;;;120.35;57.10;;;;;;;-0.54;83.26;103434.78;4852682;29;20046;-72
2023/01/25 08:49:00;;;;;;;127.18;59.05;;;;;;;-0.49;83.53;103428.16;4859724;29;20042;-71
2023/01/25 08:51:30;;;;;;;124.32;59.47;;;;;;;-0.43;83.69;103429.31;4873956;29;20118;-72
2023/01/25 08:54:05;;;;;;;125.55;57.60;;;;;;;-0.39;83.62;103432.16;4873249;29;20122;-72
2023/01/25 08:56:39;;;;;;;128.23;58.63;;;;;;;-0.43;83.73;103435.38;4871939;29;20063;-71
2023/01/25 08:59:09;;;;;;;125.63;59.00;;;;;;;-0.38;83.91;103438.22;4865540;29;20050;-72
2023/01/25 09:01:36;;;;;;;123.07;62.88;;;;;;;-0.33;83.68;103429.91;4853001;29;20049;-72
2023/01/25 09:04:03;;;;;;;128.27;58.30;;;;;;;-0.29;83.69;103423.19;4867322;29;20083;-72
2023/01/25 09:06:32;;;;;;;125.60;59.58;;;;;;;-0.28;83.56;103421.50;4872737;29;20128;-72
2023/01/25 09:08:59;;;;;;;130.10;59.28;;;;;;;-0.27;83.34;103419.00;4872102;29;20049;-72
2023/01/25 09:11:27;;;;;;;126.70;62.63;;;;;;;-0.26;83.39;103409.53;4867840;29;20045;-70
2023/01/25 09:13:54;;;;;;;120.57;58.97;;;;;;;-0.26;83.33;103401.75;4863355;29;20050;-70
2023/01/25 09:16:27;;;;;;;130.50;63.60;;;;;;;-0.25;82.80;103406.09;4858670;29;20084;-70
2023/01/25 09:19:02;;;;;;;132.77;60.20;;;;;;;-0.27;82.95;103407.75;4872306;29;20888;-70
2023/01/25 09:21:30;;;;;;;129.95;59.97;;;;;;;-0.26;83.39;103401.75;4871033;29;20430;-70
2023/01/25 09:23:58;;;;;;;127.07;61.58;;;;;;;-0.20;83.18;103404.69;4885743;29;20068;-70
2023/01/25 09:26:39;;;;;;;136.70;61.80;;;;;;;-0.18;82.84;103408.25;4880005;29;20054;-71
2023/01/25 09:29:09;;;;;;;127.90;60.58;;;;;;;-0.14;82.81;103415.38;4877439;29;20049;-71
2023/01/25 09:31:39;;;;;;;133.93;62.80;;;;;;;-0.12;82.86;103408.59;4875337;29;20273;-70
2023/01/25 09:34:26;;;;;;;132.85;61.90;;;;;;;-0.05;82.90;103409.81;4878254;29;20049;-70
2023/01/25 09:36:53;;;;;;;134.85;63.20;;;;;;;-0.02;82.80;103405.69;4883602;29;20064;-71
2023/01/25 09:39:20;;;;;;;133.07;61.42;;;;;;;-0.01;82.50;103409.19;4890567;29;20045;-70
2023/01/25 09:41:58;;;;;;;130.02;61.63;;;;;;;-0.01;82.02;103404.00;4890790;29;20053;-70
2023/01/25 09:44:38;;;;;;;136.43;62.55;;;;;;;-0.05;82.00;103402.91;4888956;29;20059;-70
2023/01/25 09:47:42;;;;;;;132.43;62.92;;;;;;;-0.05;82.09;103407.22;4887533;29;20045;-70
2023/01/25 09:50:32;;;;;;;132.48;63.33;;;;;;;-0.05;82.07;103404.63;4882486;29;20099;-70
2023/01/25 09:53:33;;;;;;;132.23;62.17;;;;;;;-0.07;82.34;103401.97;4880749;29;20509;-70
2023/01/25 09:56:21;;;;;;;131.45;61.28;;;;;;;-0.06;82.13;103395.97;4877609;29;20065;-70
2023/01/25 09:58:54;;;;;;;132.93;63.40;;;;;;;-0.05;82.31;103396.84;4890359;29;20118;-70
2023/01/25 10:01:47;;;;;;;133.50;62.67;;;;;;;-0.06;82.09;103397.66;4878901;29;20060;-70
2023/01/25 10:04:29;;;;;;;128.85;59.95;;;;;;;0.00;82.67;103403.19;4890333;29;20120;-70
2023/01/25 10:07:12;;;;;;;138.50;64.50;;;;;;;0.05;82.56;103406.91;4890484;29;20562;-70
2023/01/25 10:09:59;;;;;;;137.05;61.83;;;;;;;0.12;82.37;103403.84;4877958;29;20133;-70
2023/01/25 10:12:35;;;;;;;139.63;62.20;;;;;;;0.07;81.81;103388.81;4887400;29;20045;-70
2023/01/25 10:15:19;;;;;;;126.47;59.03;;;;;;;0.09;81.21;103392.41;4887759;29;20065;-70
2023/01/25 10:18:15;;;;;;;128.38;59.25;;;;;;;0.01;80.78;103384.19;4889493;29;20113;-70
2023/01/25 10:21:02;;;;;;;133.00;60.83;;;;;;;-0.07;80.89;103377.72;4889878;29;20045;-70
2023/01/25 10:24:05;;;;;;;133.02;60.20;;;;;;;-0.12;81.21;103376.59;4888949;29;20513;-70
2023/01/25 10:26:35;;;;;;;134.70;62.08;;;;;;;-0.12;81.57;103374.88;4871681;29;20493;-70
2023/01/25 10:29:19;;;;;;;135.05;61.53;;;;;;;-0.09;81.81;103369.84;4887012;29;20127;-70
2023/01/25 10:31:53;;;;;;;134.75;61.15;;;;;;;-0.05;81.55;103369.19;4890421;29;20052;-70
2023/01/25 10:34:38;;;;;;;141.60;63.47;;;;;;;-0.06;81.27;103371.72;4893245;29;20503;-70
2023/01/25 10:37:28;;;;;;;138.02;60.78;;;;;;;-0.07;81.79;103369.94;4893732;29;20049;-70
2023/01/25 10:40:25;;;;;;;138.30;63.38;;;;;;;-0.05;81.78;103364.00;4893223;29;20204;-70
2023/01/25 10:43:17;;;;;;;140.55;63.05;;;;;;;-0.03;82.00;103362.41;4883800;29;20057;-71
2023/01/25 10:45:47;;;;;;;140.63;57.78;;;;;;;-0.03;81.64;103339.06;4880808;29;20080;-70
2023/01/25 10:48:21;;;;;;;135.48;62.08;;;;;;;0.01;81.41;103347.00;4891682;29;20061;-71
2023/01/25 10:50:56;;;;;;;136.07;60.92;;;;;;;-0.03;81.32;103333.88;4892928;29;20052;-71
2023/01/25 10:53:35;;;;;;;131.35;59.33;;;;;;;-0.08;81.47;103324.97;4892041;29;20453;-70
2023/01/25 10:56:14;;;;;;;133.77;58.72;;;;;;;-0.07;81.54;103324.16;4892822;29;20091;-70
2023/01/25 10:58:45;;;;;;;128.45;57.85;;;;;;;-0.09;81.28;103319.66;4892839;29;20061;-70
2023/01/25 11:01:29;;;;;;;135.52;60.00;;;;;;;-0.13;81.29;103316.03;4868260;29;20442;-70
2023/01/25 11:03:59;;;;;;;128.18;59.63;;;;;;;-0.18;81.25;103300.22;4879102;29;20712;-70
2023/01/25 11:06:49;;;;;;;139.15;61.08;;;;;;;-0.16;81.66;103300.34;4893648;29;20136;-70
2023/01/25 11:09:21;;;;;;;132.27;59.50;;;;;;;-0.10;81.86;103298.06;4874429;29;20445;-70
2023/01/25 11:12:02;;;;;;;129.25;57.47;;;;;;;-0.06;81.54;103291.31;4882426;29;20037;-70
2023/01/25 11:14:32;;;;;;;130.88;59.92;;;;;;;-0.09;81.45;103280.78;4891938;29;20574;-70
2023/01/25 11:17:04;;;;;;;140.68;59.03;;;;;;;-0.07;81.54;103280.06;4873293;29;20156;-70
2023/01/25 11:19:34;;;;;;;131.60;59.10;;;;;;;-0.06;81.58;103281.84;4873512;29;20057;-70
2023/01/25 11:22:18;;;;;;;135.57;59.85;;;;;;;-0.01;81.66;103282.09;4873736;29;20046;-70
2023/01/25 11:24:46;;;;;;;133.83;58.87;;;;;;;0.00;81.50;103276.09;4875759;29;20136;-70
2023/01/25 11:27:26;;;;;;;131.10;58.22;;;;;;;-0.02;80.87;103257.84;4889412;29;20673;-70
2023/01/25 11:30:29;;;;;;;133.57;60.45;;;;;;;-0.12;80.88;103252.97;4890484;29;20044;-70
2023/01/25 11:32:56;;;;;;;131.32;59.42;;;;;;;-0.11;81.46;103248.72;4832352;29;21178;-70
2023/01/25 11:35:31;;;;;;;137.57;59.53;;;;;;;-0.06;81.82;103240.34;4880920;29;20060;-70
2023/01/25 11:38:16;;;;;;;132.38;60.17;;;;;;;0.03;81.92;103231.28;4891686;29;20080;-70